Página principal
METAR-TAF:

METAR-TAF

Aeroportos :

Djibouti, Djibouti

Aeroporto Internacional de Djibouti-Ambouli

latitude: 11-33N, longitude: 043-10E, altura: 49 m

Observação actual do tempo

O boletim foi feito há 9 horas e 31 minutos, às 14:00 UTC
Vento 8 kt de este
Temperatura 33°C
Humidade 59%
Pressão 1009 hPa
Visibilidade 10 km ou mais
sem nuvens abaixo de 1500 metros e sem cumulonimbus

METAR: HDAM 191400Z 10008KT CAVOK 33/24 Q1009

Hora: 02:31 (23:31 UTC)

Previsão

O boletim foi feito há 13 horas e 31 minutos, às 10:00 UTC
Previsão válida de 19 às 12 UTC a 20 às 12 UTC
Vento 10 kt de este
Poucas nuvensa uma altura de 3000 ft, Cumulonimbus.
Tornando-se
de 19 às 15 UTC a 20 às 06 UTC
Vento 3 kt com direcção variável
Nuvens dispersasa uma altura de 2000 ft

TAF: HDAM 191000Z 1912/2012 08010KT 9/9 FEW030CB BECMG 1915/2006 VRB03KT SCT020

Observações e previsões do tempo de mais de 4000 aeroportos (mensagens METAR e TAF).

As estações disponíveis são os pontos amarelos e vermelhos sobre o mapa.

Mova o rato sobre o mapa para ver o nome da estação.

Depois clique no ponto para visualizar as observações e previsões meteorológicas.

Para alterar o mapa : clique nos botões verdes com uma cruz preta para aumentar o zoom; no botão verde com uma pitada de zoom; ou nas setas verdes para mapas adjacentes.


METAR-TAF: